createdAt,value
2023-02-01T17:03:19.517Z,39.92
2023-02-01T17:05:52.964Z,39.96
2023-02-01T17:08:27.255Z,40.00
2023-02-01T17:10:53.991Z,40.03
2023-02-01T17:13:20.875Z,39.87
2023-02-01T17:15:57.156Z,39.85
2023-02-01T17:18:25.767Z,39.86
2023-02-01T17:20:52.562Z,39.75
2023-02-01T17:23:20.035Z,39.61
2023-02-01T17:25:48.261Z,39.67
2023-02-01T17:28:16.398Z,39.66
2023-02-01T17:30:43.233Z,39.60
2023-02-01T17:33:22.586Z,39.54
2023-02-01T17:35:50.849Z,39.32
2023-02-01T17:38:18.436Z,39.23
2023-02-01T17:40:45.290Z,39.08
2023-02-01T17:43:14.146Z,39.23
2023-02-01T17:45:53.299Z,39.25
2023-02-01T17:48:20.819Z,39.15
2023-02-01T17:50:50.364Z,39.16
2023-02-01T20:53:52.464Z,58.22
2023-02-01T20:56:20.655Z,48.74
2023-02-01T20:58:47.820Z,46.85
2023-02-01T21:01:15.409Z,45.78
2023-02-01T21:03:42.664Z,44.86
2023-02-01T21:06:11.967Z,44.18
2023-02-01T21:08:40.928Z,43.57
2023-02-01T21:11:10.649Z,43.17
2023-02-01T21:13:43.780Z,42.72
2023-02-01T21:16:12.766Z,42.23
2023-02-01T21:18:41.745Z,41.94
2023-02-01T21:21:10.786Z,41.73
2023-02-01T21:23:44.383Z,41.35
2023-02-01T21:26:17.711Z,41.05
2023-02-01T21:28:45.066Z,40.66
2023-02-01T21:31:17.912Z,40.55
2023-02-01T21:33:47.772Z,40.39
2023-02-01T21:36:18.457Z,40.25
2023-02-01T21:38:50.610Z,40.13
2023-02-01T21:41:41.594Z,39.97
2023-02-01T21:44:09.043Z,39.83
2023-02-01T21:46:36.601Z,39.73
2023-02-01T21:49:06.107Z,39.62
2023-02-01T21:51:37.513Z,39.54
2023-02-01T21:54:05.637Z,39.48
2023-02-01T21:56:33.231Z,39.36
2023-02-01T21:59:00.246Z,39.45
2023-02-01T22:01:27.134Z,39.36
2023-02-01T22:03:54.183Z,39.31
2023-02-01T22:06:25.491Z,39.29
2023-02-01T22:08:52.777Z,39.30
2023-02-01T22:11:21.122Z,39.16
2023-02-01T22:13:48.030Z,39.07
2023-02-01T22:16:17.455Z,39.01
2023-02-01T22:18:44.947Z,38.88
2023-02-01T22:21:11.878Z,38.83
2023-02-01T22:23:39.331Z,38.77
2023-02-01T22:26:10.202Z,38.80
2023-02-01T22:28:37.948Z,38.72
2023-02-01T22:31:06.176Z,38.74
2023-02-01T22:33:33.788Z,38.75
2023-02-01T22:36:01.101Z,38.67
2023-02-01T22:38:35.038Z,38.62
2023-02-01T22:41:05.362Z,38.60
2023-02-01T22:43:32.847Z,38.58
2023-02-01T22:46:05.044Z,38.56
2023-02-01T22:48:37.317Z,38.50
2023-02-01T22:51:05.305Z,38.28
2023-02-01T22:53:32.169Z,38.28
2023-02-01T22:56:10.064Z,38.26
2023-02-01T22:58:37.050Z,38.35
2023-02-01T23:01:11.351Z,38.15
2023-02-01T23:03:38.583Z,38.11
2023-02-01T23:06:06.663Z,38.12
2023-02-01T23:08:38.732Z,38.09
2023-02-01T23:11:07.410Z,38.01
2023-02-01T23:13:35.063Z,38.05
2023-02-01T23:16:06.846Z,38.16
2023-02-01T23:18:33.801Z,38.20
2023-02-01T23:21:11.219Z,38.23
2023-02-01T23:23:38.171Z,38.10
2023-02-01T23:26:08.871Z,38.05
2023-02-01T23:28:35.588Z,37.98
2023-02-01T23:31:07.790Z,38.01
2023-02-01T23:33:34.793Z,37.93
2023-02-01T23:36:03.734Z,37.95
2023-02-01T23:38:30.994Z,38.04
2023-02-01T23:40:59.737Z,38.03
2023-02-01T23:43:45.717Z,38.04
2023-02-01T23:46:12.822Z,38.17
2023-02-01T23:48:39.626Z,38.13
2023-02-01T23:51:06.422Z,38.01
2023-02-01T23:53:33.653Z,37.83
